Time;durP1;ratioP1;P1;durP2;ratioP2;P2;SDS_P1;SDS_P2;PMS_P1;PMS_P2;Temp;Humidity;BMP_temperature;BMP_pressure;BME280_temperature;BME280_humidity;BME280_pressure;Samples;Min_cycle;Max_cycle;Signal;HPM_P1;HPM_P2
2023/09/23 00:01:05;;;;;;;22.15;8.10;;;23.60;99.90;;;;;;4855406;29;20419;-77
2023/09/23 00:03:50;;;;;;;19.17;7.30;;;23.60;99.90;;;;;;4852165;29;20045;-78
2023/09/23 00:06:20;;;;;;;20.63;8.25;;;23.30;99.90;;;;;;4865276;29;20050;-77
2023/09/23 00:08:48;;;;;;;27.92;7.47;;;22.50;99.90;;;;;;4853718;29;20428;-78
2023/09/23 00:11:16;;;;;;;18.98;7.65;;;23.00;99.90;;;;;;4865915;29;20037;-76
2023/09/23 00:13:43;;;;;;;20.48;7.28;;;23.30;99.90;;;;;;4855697;29;20436;-74
2023/09/23 00:16:11;;;;;;;25.95;7.50;;;23.30;99.90;;;;;;4852974;29;20054;-77
2023/09/23 00:18:38;;;;;;;19.83;8.13;;;22.80;99.90;;;;;;4856640;29;20129;-78
2023/09/23 00:21:08;;;;;;;15.32;6.68;;;22.20;99.90;;;;;;4852579;29;20383;-75
2023/09/23 00:23:35;;;;;;;15.80;7.10;;;22.70;99.90;;;;;;4854472;29;20045;-78
2023/09/23 00:26:03;;;;;;;17.42;7.57;;;23.10;99.90;;;;;;4857797;29;20441;-77
2023/09/23 00:28:30;;;;;;;23.35;6.85;;;23.00;99.90;;;;;;4871177;29;20034;-74
2023/09/23 00:31:11;;;;;;;18.13;6.18;;;23.00;99.90;;;;;;4862625;29;20403;-75
2023/09/23 00:33:39;;;;;;;22.13;7.13;;;23.20;99.90;;;;;;4871350;29;20042;-76
2023/09/23 00:36:10;;;;;;;13.38;6.65;;;23.30;99.90;;;;;;4870523;29;20037;-74
2023/09/23 00:38:38;;;;;;;19.83;7.85;;;22.50;99.90;;;;;;4869967;29;20266;-74
2023/09/23 00:41:06;;;;;;;19.65;6.93;;;22.60;99.90;;;;;;4855882;29;20045;-75
2023/09/23 00:43:34;;;;;;;18.02;7.53;;;22.60;99.90;;;;;;4855961;29;20049;-75
2023/09/23 00:46:04;;;;;;;13.23;6.32;;;22.90;99.90;;;;;;4854902;29;20036;-74
2023/09/23 00:48:39;;;;;;;21.13;6.93;;;22.60;99.90;;;;;;4869890;29;20128;-76
2023/09/23 00:51:09;;;;;;;17.05;7.35;;;22.00;99.90;;;;;;4856626;29;20064;-76
2023/09/23 00:53:39;;;;;;;21.90;7.88;;;22.40;99.90;;;;;;4855555;29;20121;-75
2023/09/23 00:56:08;;;;;;;;;;;22.70;99.90;;;;;;4851535;29;20466;-75
2023/09/23 00:58:38;;;;;;;15.32;6.45;;;22.70;99.90;;;;;;4871387;29;19920;-76
2023/09/23 01:01:05;;;;;;;;;;;21.50;99.90;;;;;;4854623;29;20041;-76
2023/09/23 01:03:32;;;;;;;16.92;6.70;;;21.90;99.90;;;;;;4867154;29;20392;-74
2023/09/23 01:06:06;;;;;;;25.75;7.53;;;22.10;99.90;;;;;;4855106;29;20063;-73
2023/09/23 01:08:33;;;;;;;16.15;7.20;;;22.00;99.90;;;;;;4854301;29;20048;-74
2023/09/23 01:11:00;;;;;;;28.05;7.30;;;21.80;99.90;;;;;;4856428;29;20046;-75
2023/09/23 01:13:29;;;;;;;15.45;6.57;;;21.20;99.90;;;;;;4853403;29;20038;-74
2023/09/23 01:16:15;;;;;;;16.23;6.65;;;21.00;99.90;;;;;;4854636;29;20051;-76
2023/09/23 01:18:48;;;;;;;18.08;7.20;;;20.90;99.90;;;;;;4850208;29;20029;-75
2023/09/23 01:21:16;;;;;;;17.95;5.93;;;20.90;99.90;;;;;;4864208;29;20371;-74
2023/09/23 01:23:44;;;;;;;19.70;7.97;;;20.90;99.90;;;;;;4853255;29;20064;-75
2023/09/23 01:26:11;;;;;;;11.63;6.22;;;21.10;99.90;;;;;;4852297;29;20490;-73
2023/09/23 01:28:39;;;;;;;18.42;6.60;;;21.20;99.90;;;;;;4855561;29;20132;-74
2023/09/23 01:31:29;;;;;;;15.07;6.68;;;21.60;99.90;;;;;;4851875;29;20157;-77
2023/09/23 01:33:58;;;;;;;12.48;6.18;;;21.40;99.90;;;;;;4855779;29;20077;-73
2023/09/23 01:36:25;;;;;;;16.15;7.03;;;21.60;99.90;;;;;;4852826;29;20037;-76
2023/09/23 01:38:52;;;;;;;13.45;6.03;;;20.90;99.90;;;;;;4871191;29;20097;-76
2023/09/23 01:41:19;;;;;;;17.52;6.72;;;20.50;99.90;;;;;;4853621;29;20038;-73
2023/09/23 01:43:48;;;;;;;17.08;5.70;;;20.40;99.90;;;;;;4851024;29;20114;-75
2023/09/23 01:46:16;;;;;;;20.10;6.07;;;20.60;99.90;;;;;;4874676;29;20064;-74
2023/09/23 01:48:43;;;;;;;17.85;6.13;;;20.60;99.90;;;;;;4866997;29;20044;-74
2023/09/23 01:51:16;;;;;;;20.20;6.13;;;20.70;99.90;;;;;;4871265;29;20080;-74
2023/09/23 01:53:43;;;;;;;14.98;5.80;;;21.50;99.90;;;;;;4856393;29;20145;-76
2023/09/23 01:56:11;;;;;;;13.77;5.70;;;21.60;99.90;;;;;;4856196;29;20046;-76
2023/09/23 01:58:38;;;;;;;17.25;6.15;;;21.90;99.90;;;;;;4855057;29;20072;-75
2023/09/23 02:01:05;;;;;;;13.65;6.18;;;21.30;99.90;;;;;;4856402;29;20386;-73
2023/09/23 02:03:33;;;;;;;17.92;5.78;;;21.10;99.90;;;;;;4868857;29;20549;-77
2023/09/23 02:06:01;;;;;;;13.18;5.57;;;20.90;99.90;;;;;;4855528;29;20041;-75
2023/09/23 02:08:28;;;;;;;15.30;5.50;;;20.60;99.90;;;;;;4855272;29;20509;-75
2023/09/23 02:10:56;;;;;;;16.27;5.40;;;20.40;99.90;;;;;;4856972;29;20045;-75
2023/09/23 02:13:23;;;;;;;13.82;6.10;;;20.90;99.90;;;;;;4853034;29;20110;-76
2023/09/23 02:15:52;;;;;;;20.95;6.45;;;21.60;99.90;;;;;;4857307;29;20037;-76
2023/09/23 02:18:21;;;;;;;18.10;5.93;;;21.10;99.90;;;;;;4869235;29;20493;-76
2023/09/23 02:20:49;;;;;;;17.92;6.00;;;20.50;99.90;;;;;;4871107;29;20052;-76
2023/09/23 02:23:17;;;;;;;15.20;6.03;;;20.90;99.90;;;;;;4858649;29;20492;-74
2023/09/23 02:25:47;;;;;;;16.83;6.13;;;20.80;99.90;;;;;;4856542;29;20150;-75
2023/09/23 02:28:14;;;;;;;12.77;5.93;;;20.30;99.90;;;;;;4857129;29;20081;-74
2023/09/23 02:30:42;;;;;;;12.70;5.80;;;20.10;99.90;;;;;;4853713;29;20098;-74
2023/09/23 02:33:09;;;;;;;18.35;6.22;;;19.90;99.90;;;;;;4853479;29;20050;-76
2023/09/23 02:35:37;;;;;;;19.50;6.43;;;20.00;99.90;;;;;;4869212;29;20064;-76
2023/09/23 02:38:04;;;;;;;15.10;5.88;;;20.70;99.90;;;;;;4853266;29;20453;-76
2023/09/23 02:40:31;;;;;;;14.98;6.53;;;21.10;99.90;;;;;;4861097;29;20042;-75
2023/09/23 02:42:59;;;;;;;15.05;5.65;;;21.40;99.90;;;;;;4864923;29;20068;-74
2023/09/23 02:45:27;;;;;;;11.88;5.65;;;21.50;99.90;;;;;;4855491;29;20065;-73
2023/09/23 02:47:54;;;;;;;14.20;5.80;;;21.60;99.90;;;;;;4853879;29;20034;-72
2023/09/23 02:50:22;;;;;;;24.98;7.03;;;21.70;99.90;;;;;;4858435;29;20091;-73
2023/09/23 02:52:49;;;;;;;13.48;6.82;;;21.70;99.90;;;;;;4858826;29;20097;-74
2023/09/23 02:55:19;;;;;;;15.73;6.10;;;21.70;99.90;;;;;;4856001;29;20042;-73
2023/09/23 02:57:54;;;;;;;15.02;6.28;;;21.80;99.90;;;;;;4852086;29;20982;-74
2023/09/23 03:00:24;;;;;;;19.27;6.22;;;21.50;99.90;;;;;;4862815;29;20041;-75
2023/09/23 03:02:56;;;;;;;12.97;6.30;;;21.30;99.90;;;;;;4869106;29;20050;-77
2023/09/23 03:05:28;;;;;;;19.40;7.63;;;21.20;99.90;;;;;;4880403;29;20277;-74
2023/09/23 03:07:58;;;;;;;24.13;6.82;;;21.40;99.90;;;;;;4861115;29;20718;-78
2023/09/23 03:10:40;;;;;;;17.55;8.18;;;21.30;99.90;;;;;;4873570;29;20414;-74
2023/09/23 03:13:11;;;;;;;20.83;7.60;;;21.30;99.90;;;;;;4867493;29;20064;-74
2023/09/23 03:15:44;;;;;;;23.98;8.27;;;21.30;99.90;;;;;;4874804;29;20038;-75
2023/09/23 03:18:15;;;;;;;20.00;8.15;;;21.30;99.90;;;;;;4864772;29;20437;-74
2023/09/23 03:20:43;;;;;;;20.55;8.55;;;21.30;99.90;;;;;;4858351;29;20046;-76
2023/09/23 03:23:10;;;;;;;22.05;8.55;;;21.20;99.90;;;;;;4874054;29;20526;-75
2023/09/23 03:25:48;;;;;;;20.13;9.30;;;21.20;99.90;;;;;;4858528;29;20144;-76
2023/09/23 03:28:15;;;;;;;19.23;8.85;;;21.20;99.90;;;;;;4874284;29;20044;-77
2023/09/23 03:30:47;;;;;;;20.58;8.10;;;21.10;99.90;;;;;;4850297;29;20043;-75
2023/09/23 03:33:20;;;;;;;21.70;7.63;;;20.80;99.90;;;;;;4855632;29;20064;-75
2023/09/23 03:35:47;;;;;;;23.00;8.35;;;20.90;99.90;;;;;;4853664;29;20038;-76
2023/09/23 03:38:15;;;;;;;20.63;8.88;;;21.10;99.90;;;;;;4857962;29;20117;-76
2023/09/23 03:40:54;;;;;;;18.63;7.75;;;21.10;99.90;;;;;;4871182;29;20055;-75
2023/09/23 03:43:22;;;;;;;14.57;7.55;;;21.20;99.90;;;;;;4865786;29;20146;-76
2023/09/23 03:45:50;;;;;;;15.68;7.40;;;21.00;99.90;;;;;;4858221;29;20116;-75
2023/09/23 03:48:19;;;;;;;18.00;7.20;;;20.90;99.90;;;;;;4853983;29;20029;-74
2023/09/23 03:50:54;;;;;;;17.10;7.82;;;20.90;99.90;;;;;;4855565;29;20124;-74
2023/09/23 03:53:21;;;;;;;17.23;7.68;;;20.90;99.90;;;;;;4856389;29;20040;-75
2023/09/23 03:55:53;;;;;;;20.52;7.05;;;20.90;99.90;;;;;;4852472;29;20121;-75
2023/09/23 03:58:20;;;;;;;27.92;8.50;;;20.90;99.90;;;;;;4851838;29;20381;-75
2023/09/23 04:00:47;;;;;;;15.85;7.40;;;20.90;99.90;;;;;;4871115;29;20042;-74
2023/09/23 04:03:17;;;;;;;14.80;7.07;;;20.80;99.90;;;;;;4855561;29;20097;-76
2023/09/23 04:05:57;;;;;;;17.98;8.30;;;20.60;99.90;;;;;;4865261;29;20057;-76
2023/09/23 04:08:26;;;;;;;18.20;7.25;;;20.70;99.90;;;;;;4858312;29;20044;-81
2023/09/23 04:10:53;;;;;;;16.50;7.47;;;20.60;99.90;;;;;;4858472;29;20053;-75
2023/09/23 04:13:21;;;;;;;17.65;7.00;;;20.60;99.90;;;;;;4870962;29;20509;-74
2023/09/23 04:15:48;;;;;;;21.92;7.13;;;20.80;99.90;;;;;;4856242;29;20044;-74
2023/09/23 04:18:18;;;;;;;17.27;6.88;;;20.40;99.90;;;;;;4851165;29;20435;-74
2023/09/23 04:20:48;;;;;;;19.77;6.88;;;20.60;99.90;;;;;;4873276;29;20037;-73
2023/09/23 04:23:32;;;;;;;16.13;6.00;;;20.60;99.90;;;;;;4855418;29;20109;-76
2023/09/23 04:26:02;;;;;;;14.90;5.85;;;20.80;99.90;;;;;;4873349;29;20042;-77
2023/09/23 04:28:30;;;;;;;17.98;5.95;;;20.80;99.90;;;;;;4855992;29;20423;-76
2023/09/23 04:30:57;;;;;;;18.13;6.70;;;20.90;99.90;;;;;;4852561;29;20187;-79
2023/09/23 04:33:27;;;;;;;15.55;6.20;;;21.00;99.90;;;;;;4854445;29;20056;-77
2023/09/23 04:35:56;;;;;;;17.08;7.05;;;21.00;99.90;;;;;;4871719;29;20128;-75
2023/09/23 04:38:25;;;;;;;13.23;6.18;;;20.80;99.90;;;;;;4855944;29;20044;-78
2023/09/23 04:40:52;;;;;;;22.52;6.38;;;20.50;99.90;;;;;;4856607;29;20041;-76
2023/09/23 04:43:25;;;;;;;19.05;6.32;;;20.40;99.90;;;;;;4851309;29;20041;-76
2023/09/23 04:45:52;;;;;;;15.50;6.57;;;20.50;99.90;;;;;;4873189;29;20044;-75
2023/09/23 04:48:20;;;;;;;15.90;6.53;;;20.20;99.90;;;;;;4853944;29;20066;-76
2023/09/23 04:50:47;;;;;;;19.92;7.80;;;20.30;99.90;;;;;;4872502;29;20738;-75
2023/09/23 04:53:15;;;;;;;14.35;5.68;;;20.30;99.90;;;;;;4865641;29;20132;-76
2023/09/23 04:55:42;;;;;;;13.57;6.30;;;20.30;99.90;;;;;;4851839;29;20510;-78
2023/09/23 04:58:09;;;;;;;16.88;5.20;;;20.40;99.90;;;;;;4866145;29;20497;-76
2023/09/23 05:00:36;;;;;;;15.55;5.85;;;20.70;99.90;;;;;;4853835;29;20196;-77
2023/09/23 05:03:05;;;;;;;20.40;6.68;;;20.80;99.90;;;;;;4866921;29;20099;-76
2023/09/23 05:05:50;;;;;;;19.45;6.20;;;20.90;99.90;;;;;;4869536;29;20057;-79
2023/09/23 05:08:17;;;;;;;16.67;6.10;;;20.80;99.90;;;;;;4865458;29;20037;-76
2023/09/23 05:10:45;;;;;;;14.80;5.82;;;20.70;99.90;;;;;;4857732;29;20057;-75
2023/09/23 05:13:17;;;;;;;21.38;6.90;;;20.80;99.90;;;;;;4853948;29;20416;-77
2023/09/23 05:15:44;;;;;;;15.23;5.80;;;20.70;99.90;;;;;;4857894;29;20378;-75
2023/09/23 05:18:11;;;;;;;14.02;5.95;;;20.80;99.90;;;;;;4850095;29;20042;-76
2023/09/23 05:20:40;;;;;;;14.38;6.85;;;20.90;99.90;;;;;;4856912;29;20074;-74
2023/09/23 05:23:07;;;;;;;19.05;6.88;;;21.00;99.90;;;;;;4852701;29;20554;-76
2023/09/23 05:25:37;;;;;;;22.13;6.50;;;21.00;99.90;;;;;;4853811;29;20742;-77
2023/09/23 05:28:04;;;;;;;16.92;6.85;;;21.10;99.90;;;;;;4871772;29;20467;-78
2023/09/23 05:30:35;;;;;;;15.48;6.35;;;21.10;99.90;;;;;;4853538;29;20121;-78
2023/09/23 05:33:02;;;;;;;19.85;6.30;;;21.20;99.90;;;;;;4871509;29;20045;-76
2023/09/23 05:35:30;;;;;;;20.45;6.63;;;21.20;99.90;;;;;;4872109;29;20039;-76
2023/09/23 05:37:57;;;;;;;19.55;6.82;;;21.20;99.90;;;;;;4867667;29;20056;-77
2023/09/23 05:40:27;;;;;;;20.25;7.20;;;20.80;99.90;;;;;;4868983;29;20041;-77
2023/09/23 05:42:58;;;;;;;17.85;6.45;;;21.00;99.90;;;;;;4849135;29;20120;-79
2023/09/23 05:45:25;;;;;;;20.40;8.07;;;21.20;99.90;;;;;;4871990;29;20810;-78
2023/09/23 05:47:53;;;;;;;14.43;7.15;;;21.40;99.90;;;;;;4871453;29;20121;-78
2023/09/23 05:50:21;;;;;;;16.25;7.35;;;21.40;99.90;;;;;;4872173;29;20431;-75
2023/09/23 05:52:49;;;;;;;17.02;6.45;;;21.30;99.90;;;;;;4863865;29;20423;-74
2023/09/23 05:55:16;;;;;;;15.20;6.55;;;21.20;99.90;;;;;;4856561;29;20068;-74
2023/09/23 05:57:43;;;;;;;18.55;6.68;;;21.50;99.90;;;;;;4857067;29;20076;-75
2023/09/23 06:00:15;;;;;;;14.80;6.65;;;21.60;99.90;;;;;;4856074;29;20589;-75
2023/09/23 06:02:44;;;;;;;14.65;7.10;;;21.80;99.90;;;;;;4870902;29;20133;-78
2023/09/23 06:05:13;;;;;;;17.65;7.63;;;21.90;99.90;;;;;;4855986;29;20037;-78
2023/09/23 06:07:41;;;;;;;23.23;7.93;;;21.90;99.90;;;;;;4868862;29;20056;-76
2023/09/23 06:10:10;;;;;;;22.70;7.32;;;21.80;99.90;;;;;;4856185;29;20078;-78
2023/09/23 06:12:39;;;;;;;14.40;7.78;;;21.80;99.90;;;;;;4869963;29;20054;-74
2023/09/23 06:15:08;;;;;;;15.77;6.88;;;21.80;99.90;;;;;;4873502;29;20053;-76
2023/09/23 06:17:37;;;;;;;21.02;7.95;;;21.80;99.90;;;;;;4857967;29;20050;-77
2023/09/23 06:20:05;;;;;;;25.95;8.60;;;21.70;99.90;;;;;;4860345;29;20034;-75
2023/09/23 06:22:35;;;;;;;18.52;7.30;;;21.70;99.90;;;;;;4852909;29;20060;-76
2023/09/23 06:25:03;;;;;;;17.92;7.28;;;21.50;99.90;;;;;;4872206;29;20474;-76
2023/09/23 06:27:31;;;;;;;19.98;7.70;;;21.50;99.90;;;;;;4860098;29;20129;-76
2023/09/23 06:29:58;;;;;;;20.70;7.82;;;21.70;99.90;;;;;;4872152;29;20053;-75
2023/09/23 06:32:25;;;;;;;17.75;7.38;;;21.90;99.90;;;;;;4862179;29;20477;-76
2023/09/23 06:34:53;;;;;;;18.02;8.32;;;22.00;99.90;;;;;;4856717;29;20037;-82
2023/09/23 06:37:20;;;;;;;26.92;7.78;;;22.10;99.90;;;;;;4863580;29;20060;-75
2023/09/23 06:39:47;;;;;;;18.30;8.35;;;22.10;99.90;;;;;;4860843;29;20129;-75
2023/09/23 06:42:15;;;;;;;24.77;9.15;;;22.20;99.90;;;;;;4860462;29;20037;-74
2023/09/23 06:44:43;;;;;;;20.15;8.20;;;21.90;99.90;;;;;;4874284;29;20052;-77
2023/09/23 06:47:10;;;;;;;16.95;8.98;;;22.00;99.90;;;;;;4859029;29;20042;-75
2023/09/23 06:49:38;;;;;;;25.52;8.32;;;22.20;99.90;;;;;;4857323;29;20457;-77
2023/09/23 06:52:05;;;;;;;19.52;8.27;;;22.40;99.90;;;;;;4864286;29;20038;-77
2023/09/23 06:54:33;;;;;;;25.27;10.15;;;22.40;99.90;;;;;;4860046;29;20033;-76
2023/09/23 06:57:00;;;;;;;20.58;9.38;;;22.40;99.90;;;;;;4857060;29;20363;-76
2023/09/23 06:59:27;;;;;;;19.77;9.45;;;22.60;99.90;;;;;;4864648;29;20068;-74
2023/09/23 07:01:54;;;;;;;22.83;10.30;;;22.60;99.90;;;;;;4860801;29;20038;-75
2023/09/23 07:04:22;;;;;;;18.98;9.40;;;22.40;99.90;;;;;;4871603;29;20136;-76
2023/09/23 07:06:49;;;;;;;20.25;9.52;;;22.60;99.90;;;;;;4860155;29;20048;-76
2023/09/23 07:09:16;;;;;;;26.25;9.20;;;22.70;99.90;;;;;;4876055;29;20041;-78
2023/09/23 07:11:43;;;;;;;25.55;10.40;;;22.80;99.90;;;;;;4856155;29;20042;-77
2023/09/23 07:14:11;;;;;;;25.40;11.23;;;22.80;99.90;;;;;;4874350;29;20052;-77
2023/09/23 07:16:38;;;;;;;30.40;12.52;;;22.80;99.90;;;;;;4856036;29;20395;-76
2023/09/23 07:19:06;;;;;;;30.77;11.57;;;22.80;99.90;;;;;;4854454;29;20042;-79
2023/09/23 07:21:33;;;;;;;23.70;10.63;;;23.00;99.90;;;;;;4871058;29;20053;-78
2023/09/23 07:24:00;;;;;;;27.25;9.85;;;23.20;99.90;;;;;;4861673;29;20385;-77
2023/09/23 07:26:27;;;;;;;28.35;11.95;;;23.40;99.90;;;;;;4860184;29;20457;-75
2023/09/23 07:28:54;;;;;;;32.15;12.75;;;23.20;99.90;;;;;;4859749;29;20041;-78
2023/09/23 07:31:22;;;;;;;32.65;11.52;;;23.20;99.90;;;;;;4859421;29;20065;-79
2023/09/23 07:33:49;;;;;;;25.10;12.25;;;22.80;99.90;;;;;;4859055;29;20052;-77
2023/09/23 07:36:17;;;;;;;26.42;12.43;;;23.10;99.90;;;;;;4856833;29;20106;-76
2023/09/23 07:38:44;;;;;;;25.45;11.32;;;23.40;99.90;;;;;;4858808;29;20128;-76
2023/09/23 07:41:11;;;;;;;33.30;12.65;;;23.50;99.90;;;;;;4873089;29;20037;-75
2023/09/23 07:43:39;;;;;;;25.83;11.20;;;23.50;99.90;;;;;;4859132;29;20045;-77
2023/09/23 07:46:06;;;;;;;36.53;12.57;;;23.70;99.90;;;;;;4873301;29;20124;-74
2023/09/23 07:48:34;;;;;;;27.10;13.68;;;23.80;99.90;;;;;;4870618;29;20076;-76
2023/09/23 07:51:01;;;;;;;48.70;24.92;;;23.90;99.90;;;;;;4855252;29;20122;-76
2023/09/23 07:53:28;;;;;;;36.72;19.42;;;24.00;99.90;;;;;;4858997;29;20478;-77
2023/09/23 07:55:56;;;;;;;92.97;57.85;;;24.20;99.90;;;;;;4861075;29;20037;-75
2023/09/23 07:58:23;;;;;;;25.63;15.05;;;24.40;99.90;;;;;;4861754;29;20037;-75
2023/09/23 08:00:50;;;;;;;31.17;14.27;;;24.40;99.90;;;;;;4861800;29;20443;-79
2023/09/23 08:03:17;;;;;;;26.92;12.35;;;24.60;99.90;;;;;;4856763;29;20053;-80
2023/09/23 08:05:45;;;;;;;22.02;9.90;;;24.70;99.90;;;;;;4858548;29;20342;-75
2023/09/23 08:08:12;;;;;;;24.90;11.30;;;24.80;99.90;;;;;;4857902;29;20049;-78
2023/09/23 08:10:39;;;;;;;28.98;10.98;;;24.80;99.90;;;;;;4858896;29;20615;-74
2023/09/23 08:13:06;;;;;;;18.52;10.15;;;24.90;99.60;;;;;;4854212;29;20074;-79
2023/09/23 08:15:34;;;;;;;21.25;8.70;;;24.90;99.70;;;;;;4873985;29;20415;-78
2023/09/23 08:18:01;;;;;;;21.17;8.95;;;25.10;99.80;;;;;;4852728;29;20464;-80
2023/09/23 08:20:29;;;;;;;21.90;10.13;;;25.20;99.30;;;;;;4858435;29;20045;-77
2023/09/23 08:22:57;;;;;;;22.50;9.63;;;25.30;99.10;;;;;;4855716;29;20432;-78
2023/09/23 08:25:25;;;;;;;23.85;8.13;;;25.60;98.80;;;;;;4859119;29;20101;-80
2023/09/23 08:27:56;;;;;;;16.27;7.75;;;25.60;98.80;;;;;;4858030;29;20036;-77
2023/09/23 08:30:24;;;;;;;17.73;7.22;;;25.70;98.60;;;;;;4857273;29;20041;-78
2023/09/23 08:32:53;;;;;;;17.92;6.40;;;25.80;99.60;;;;;;4850771;29;20038;-77
2023/09/23 08:35:21;;;;;;;23.55;9.63;;;25.70;99.50;;;;;;4856023;29;20580;-78
2023/09/23 08:37:48;;;;;;;24.63;7.78;;;25.90;98.80;;;;;;4855240;29;20064;-78
2023/09/23 08:40:19;;;;;;;22.05;7.25;;;25.90;98.50;;;;;;4871541;29;20041;-77
2023/09/23 08:42:54;;;;;;;12.40;6.00;;;26.10;98.40;;;;;;4874071;29;20052;-76
2023/09/23 08:45:27;;;;;;;19.02;6.25;;;26.20;98.20;;;;;;4872781;29;20116;-76
2023/09/23 08:47:56;;;;;;;13.38;6.25;;;26.30;98.10;;;;;;4852626;29;20049;-77
2023/09/23 08:50:25;;;;;;;16.03;6.13;;;26.40;97.80;;;;;;4855249;29;20041;-78
2023/09/23 08:52:53;;;;;;;17.33;7.13;;;26.60;97.90;;;;;;4872317;29;20045;-77
2023/09/23 08:55:23;;;;;;;22.10;6.95;;;26.60;97.60;;;;;;4857288;29;20386;-82
2023/09/23 08:57:50;;;;;;;16.55;6.90;;;26.70;97.40;;;;;;4858100;29;20452;-77
2023/09/23 09:00:18;;;;;;;16.30;5.97;;;26.90;97.10;;;;;;4857146;29;20501;-76
2023/09/23 09:02:45;;;;;;;18.58;7.85;;;27.00;96.70;;;;;;4871596;29;20097;-78
2023/09/23 09:05:14;;;;;;;25.42;7.47;;;27.10;96.30;;;;;;4853928;29;20086;-78
2023/09/23 09:07:41;;;;;;;33.83;15.77;;;27.20;95.90;;;;;;4869861;29;20053;-77
2023/09/23 09:10:09;;;;;;;67.90;39.83;;;27.40;95.40;;;;;;4871554;29;20486;-78
2023/09/23 09:12:36;;;;;;;42.45;28.08;;;27.20;95.10;;;;;;4861374;29;20041;-75
2023/09/23 09:15:04;;;;;;;22.77;10.27;;;27.30;95.00;;;;;;4855878;29;20462;-78
2023/09/23 09:17:34;;;;;;;24.70;9.80;;;27.50;95.30;;;;;;4856504;29;20220;-77
2023/09/23 09:20:09;;;;;;;21.05;8.05;;;27.80;94.60;;;;;;4867542;29;20120;-76
2023/09/23 09:22:37;;;;;;;15.43;6.68;;;27.90;94.90;;;;;;4868170;29;20686;-75
2023/09/23 09:25:10;;;;;;;22.70;6.60;;;27.90;94.00;;;;;;4863391;29;20064;-77
2023/09/23 09:27:37;;;;;;;17.75;7.05;;;28.00;93.80;;;;;;4855818;29;20048;-77
2023/09/23 09:30:22;;;;;;;21.83;7.15;;;28.20;92.80;;;;;;4857855;29;20021;-76
2023/09/23 09:32:56;;;;;;;22.27;7.80;;;28.30;93.20;;;;;;4871835;29;20057;-76
2023/09/23 09:35:24;;;;;;;24.25;11.05;;;28.40;92.20;;;;;;4855905;29;20051;-76
2023/09/23 09:37:55;;;;;;;42.70;29.75;;;28.40;91.20;;;;;;4871595;29;20046;-80
2023/09/23 09:40:42;;;;;;;24.00;13.50;;;28.30;90.90;;;;;;4857072;29;20071;-81
2023/09/23 09:43:09;;;;;;;18.55;9.20;;;28.30;91.00;;;;;;4856754;29;20042;-75
2023/09/23 09:45:40;;;;;;;17.83;7.93;;;28.30;90.40;;;;;;4860664;29;20490;-79
2023/09/23 09:48:09;;;;;;;17.58;6.00;;;28.30;89.60;;;;;;4857534;29;20359;-75
2023/09/23 09:50:39;;;;;;;18.27;6.70;;;28.40;90.30;;;;;;4857066;29;20045;-75
2023/09/23 09:53:06;;;;;;;19.85;7.07;;;28.60;89.90;;;;;;4857189;29;20038;-76
2023/09/23 09:55:34;;;;;;;16.35;6.75;;;28.70;90.00;;;;;;4857619;29;20121;-77
2023/09/23 09:58:01;;;;;;;16.40;7.32;;;29.00;90.10;;;;;;4858183;29;20494;-76
2023/09/23 10:00:30;;;;;;;21.63;5.60;;;29.00;89.10;;;;;;4860849;29;20041;-74
2023/09/23 10:03:06;;;;;;;22.98;6.97;;;29.00;89.20;;;;;;4860871;29;20132;-73
2023/09/23 10:05:34;;;;;;;18.83;7.00;;;29.20;87.70;;;;;;4860403;29;20124;-75
2023/09/23 10:08:12;;;;;;;19.88;6.45;;;29.20;86.70;;;;;;4858007;29;20398;-75
2023/09/23 10:10:47;;;;;;;16.88;6.53;;;29.30;86.50;;;;;;4859819;29;20040;-75
2023/09/23 10:13:22;;;;;;;22.42;8.30;;;29.10;85.70;;;;;;4859413;29;20084;-75
2023/09/23 10:15:50;;;;;;;17.33;5.88;;;29.30;86.30;;;;;;4866369;29;20056;-74
2023/09/23 10:18:18;;;;;;;19.60;5.93;;;29.40;85.60;;;;;;4875681;29;20064;-75
2023/09/23 10:20:56;;;;;;;14.65;5.55;;;29.50;85.70;;;;;;4873401;29;20113;-76
2023/09/23 10:23:23;;;;;;;15.75;6.07;;;29.90;84.60;;;;;;4860700;29;20136;-77
2023/09/23 10:25:52;;;;;;;19.83;5.82;;;30.00;84.00;;;;;;4861019;29;20591;-76
2023/09/23 10:28:24;;;;;;;15.48;4.88;;;30.00;82.90;;;;;;4870859;29;20538;-75
2023/09/23 10:31:00;;;;;;;17.58;6.22;;;29.70;82.20;;;;;;4873683;29;20094;-76
2023/09/23 10:33:29;;;;;;;14.13;5.72;;;29.70;83.70;;;;;;4873480;29;20390;-75
2023/09/23 10:35:58;;;;;;;14.68;5.80;;;30.00;82.60;;;;;;4860651;29;20037;-74
2023/09/23 10:38:38;;;;;;;15.57;5.68;;;30.40;81.90;;;;;;4873961;29;20238;-79
2023/09/23 10:41:05;;;;;;;18.53;5.70;;;30.60;81.00;;;;;;4860139;29;20065;-78
2023/09/23 10:43:33;;;;;;;16.70;5.38;;;30.70;81.50;;;;;;4860031;29;20132;-74
2023/09/23 10:46:05;;;;;;;16.33;5.95;;;30.70;80.10;;;;;;4860691;29;20038;-76
2023/09/23 10:48:33;;;;;;;12.68;5.40;;;31.00;80.50;;;;;;4859886;29;20045;-75
2023/09/23 10:51:01;;;;;;;18.80;6.00;;;31.10;79.70;;;;;;4874705;29;20113;-73
2023/09/23 10:53:29;;;;;;;19.42;5.90;;;31.00;79.60;;;;;;4860418;29;20715;-78
2023/09/23 10:56:02;;;;;;;15.88;5.53;;;31.00;79.80;;;;;;4866671;29;20045;-74
2023/09/23 10:58:31;;;;;;;49.95;29.23;;;31.30;79.80;;;;;;4859707;29;20106;-74
2023/09/23 11:00:58;;;;;;;43.03;28.45;;;31.40;77.80;;;;;;4859566;29;20065;-74
2023/09/23 11:03:25;;;;;;;24.13;12.60;;;31.30;78.20;;;;;;4870954;29;20041;-75
2023/09/23 11:05:54;;;;;;;12.23;5.60;;;31.10;77.60;;;;;;4853831;29;20069;-75
2023/09/23 11:08:22;;;;;;;19.08;6.22;;;31.30;78.00;;;;;;4860941;29;20080;-75
2023/09/23 11:10:50;;;;;;;20.33;11.35;;;31.60;77.60;;;;;;4874028;29;20056;-75
2023/09/23 11:13:17;;;;;;;24.85;10.13;;;31.70;77.00;;;;;;4862896;29;20045;-74
2023/09/23 11:15:45;;;;;;;17.92;8.15;;;31.80;76.80;;;;;;4861441;29;20049;-75
2023/09/23 11:18:15;;;;;;;18.65;8.30;;;32.00;76.30;;;;;;4860131;29;20082;-74
2023/09/23 11:20:47;;;;;;;17.85;7.93;;;32.10;76.10;;;;;;4861579;29;20062;-75
2023/09/23 11:23:14;;;;;;;18.17;7.13;;;32.20;75.70;;;;;;4877599;29;20041;-74
2023/09/23 11:25:44;;;;;;;12.45;6.40;;;32.30;75.40;;;;;;4859191;29;20117;-74
2023/09/23 11:28:22;;;;;;;15.15;5.20;;;32.20;74.60;;;;;;4857861;29;20056;-75
2023/09/23 11:30:51;;;;;;;14.77;6.05;;;32.40;73.60;;;;;;4856242;29;20037;-75
2023/09/23 11:33:18;;;;;;;14.43;6.25;;;32.40;75.20;;;;;;4857741;29;20042;-75
2023/09/23 11:35:46;;;;;;;15.82;6.35;;;32.40;74.60;;;;;;4872147;29;20061;-74
2023/09/23 11:38:14;;;;;;;19.15;7.18;;;33.00;74.10;;;;;;4864175;29;20044;-74
2023/09/23 11:40:41;;;;;;;24.73;6.57;;;34.20;71.40;;;;;;4862389;29;20088;-74
2023/09/23 11:43:09;;;;;;;12.80;5.15;;;33.60;70.90;;;;;;4858372;29;20080;-72
2023/09/23 11:45:36;;;;;;;14.93;5.47;;;33.30;70.40;;;;;;4877714;29;20041;-74
2023/09/23 11:48:06;;;;;;;19.00;6.28;;;33.20;71.70;;;;;;4863624;29;20050;-75
2023/09/23 11:50:33;;;;;;;18.92;5.90;;;32.90;71.50;;;;;;4859180;29;20049;-76
2023/09/23 11:53:00;;;;;;;15.48;6.35;;;32.90;72.10;;;;;;4858159;29;20113;-71
2023/09/23 11:55:29;;;;;;;19.33;6.10;;;33.10;72.20;;;;;;4863183;29;20041;-73
2023/09/23 11:57:57;;;;;;;16.30;5.85;;;33.10;70.40;;;;;;4860145;29;20072;-75
2023/09/23 12:00:25;;;;;;;14.50;5.47;;;33.00;70.30;;;;;;4865646;29;20084;-75
2023/09/23 12:02:52;;;;;;;15.73;5.57;;;33.00;70.50;;;;;;4868780;29;20057;-76
2023/09/23 12:05:20;;;;;;;19.92;5.88;;;32.90;69.90;;;;;;4855613;29;20030;-75
2023/09/23 12:07:48;;;;;;;13.65;5.55;;;33.20;69.50;;;;;;4870817;29;20042;-75
2023/09/23 12:10:15;;;;;;;15.95;6.15;;;33.00;70.20;;;;;;4872932;29;20038;-75
2023/09/23 12:12:43;;;;;;;14.77;6.15;;;33.10;68.60;;;;;;4858427;29;20037;-74
2023/09/23 12:15:10;;;;;;;22.00;7.25;;;33.10;69.50;;;;;;4870699;29;20478;-74
2023/09/23 12:17:38;;;;;;;15.00;6.15;;;32.90;70.10;;;;;;4856207;29;20042;-74
2023/09/23 12:20:11;;;;;;;22.50;7.05;;;33.00;69.80;;;;;;4859625;29;20049;-75
2023/09/23 12:22:39;;;;;;;20.17;6.88;;;33.00;67.70;;;;;;4867998;29;20500;-75
2023/09/23 12:25:08;;;;;;;21.20;9.10;;;33.20;68.80;;;;;;4856719;29;20046;-76
2023/09/23 12:27:35;;;;;;;19.40;6.75;;;33.20;66.40;;;;;;4859301;29;20037;-76
2023/09/23 12:30:03;;;;;;;18.25;6.57;;;33.30;67.80;;;;;;4857865;29;20837;-76
2023/09/23 12:32:30;;;;;;;17.75;7.10;;;33.20;69.00;;;;;;4869998;29;20033;-73
2023/09/23 12:34:58;;;;;;;21.90;7.55;;;33.00;68.70;;;;;;4851440;29;20501;-76
2023/09/23 12:37:30;;;;;;;24.52;7.97;;;32.90;68.00;;;;;;4862190;29;20101;-74
2023/09/23 12:39:57;;;;;;;15.77;5.97;;;33.40;67.40;;;;;;4857181;29;20408;-77
2023/09/23 12:42:25;;;;;;;16.30;5.95;;;33.70;66.40;;;;;;4854366;29;20553;-78
2023/09/23 12:44:52;;;;;;;22.70;6.20;;;33.80;65.40;;;;;;4850654;29;20053;-77